sensor_id;sensor_type;location;lat;lon;timestamp;pressure;altitude;pressure_sealevel;temperature;humidity
44138;BME280;29800;55.942;37.314;2024-03-23T00:52:26;98423.13;;;2.95;72.32
44138;BME280;29800;55.942;37.314;2024-03-23T00:54:52;98408.56;;;2.96;72.73
44138;BME280;29800;55.942;37.314;2024-03-23T00:57:19;98409.78;;;3.00;72.78
44138;BME280;29800;55.942;37.314;2024-03-23T00:59:45;98405.53;;;2.92;73.06
44138;BME280;29800;55.942;37.314;2024-03-23T01:02:11;98398.34;;;2.86;73.38
44138;BME280;29800;55.942;37.314;2024-03-23T01:04:37;98402.94;;;2.86;73.62
44138;BME280;29800;55.942;37.314;2024-03-23T01:07:04;98399.16;;;2.87;73.67
44138;BME280;29800;55.942;37.314;2024-03-23T01:09:30;98398.56;;;2.85;73.44
44138;BME280;29800;55.942;37.314;2024-03-23T01:11:56;98393.75;;;2.87;73.88
44138;BME280;29800;55.942;37.314;2024-03-23T01:14:23;98392.94;;;2.86;74.33
44138;BME280;29800;55.942;37.314;2024-03-23T01:16:49;98387.88;;;2.90;74.11
44138;BME280;29800;55.942;37.314;2024-03-23T01:19:15;98384.59;;;2.88;74.12
44138;BME280;29800;55.942;37.314;2024-03-23T01:21:41;98377.53;;;2.87;74.49
44138;BME280;29800;55.942;37.314;2024-03-23T01:24:09;98369.41;;;2.87;74.67
44138;BME280;29800;55.942;37.314;2024-03-23T01:26:37;98372.97;;;2.87;74.56
44138;BME280;29800;55.942;37.314;2024-03-23T01:29:03;98360.25;;;2.88;74.77
44138;BME280;29800;55.942;37.314;2024-03-23T01:31:29;98361.31;;;2.87;75.34
44138;BME280;29800;55.942;37.314;2024-03-23T01:33:56;98362.84;;;2.83;75.85
44138;BME280;29800;55.942;37.314;2024-03-23T01:36:22;98354.97;;;2.81;75.36
44138;BME280;29800;55.942;37.314;2024-03-23T01:38:48;98353.09;;;2.82;75.51
44138;BME280;29800;55.942;37.314;2024-03-23T01:41:15;98349.81;;;2.80;76.40
44138;BME280;29800;55.942;37.314;2024-03-23T01:43:41;98343.34;;;2.81;76.62
44138;BME280;29800;55.942;37.314;2024-03-23T01:46:07;98339.81;;;2.80;76.43
44138;BME280;29800;55.942;37.314;2024-03-23T01:48:34;98343.22;;;2.75;76.45
44138;BME280;29800;55.942;37.314;2024-03-23T01:51:00;98341.56;;;2.74;77.01
44138;BME280;29800;55.942;37.314;2024-03-23T01:53:27;98327.03;;;2.75;76.88
44138;BME280;29800;55.942;37.314;2024-03-23T01:55:54;98325.00;;;2.71;77.10
44138;BME280;29800;55.942;37.314;2024-03-23T01:58:21;98320.41;;;2.71;76.92
44138;BME280;29800;55.942;37.314;2024-03-23T02:00:47;98311.72;;;2.69;77.53
44138;BME280;29800;55.942;37.314;2024-03-23T02:03:23;98310.81;;;2.75;77.28
44138;BME280;29800;55.942;37.314;2024-03-23T02:05:51;98305.25;;;2.70;77.55
44138;BME280;29800;55.942;37.314;2024-03-23T02:08:22;98304.22;;;2.71;77.82
44138;BME280;29800;55.942;37.314;2024-03-23T02:10:50;98294.59;;;2.75;77.50
44138;BME280;29800;55.942;37.314;2024-03-23T02:13:19;98298.56;;;2.73;77.98
44138;BME280;29800;55.942;37.314;2024-03-23T02:15:47;98294.34;;;2.65;78.23
44138;BME280;29800;55.942;37.314;2024-03-23T02:18:13;98283.88;;;2.69;78.48
44138;BME280;29800;55.942;37.314;2024-03-23T02:20:39;98282.25;;;2.68;78.20
44138;BME280;29800;55.942;37.314;2024-03-23T02:23:06;98272.13;;;2.63;78.53
44138;BME280;29800;55.942;37.314;2024-03-23T02:25:38;98267.78;;;2.62;78.72
44138;BME280;29800;55.942;37.314;2024-03-23T02:28:05;98262.38;;;2.62;79.20
44138;BME280;29800;55.942;37.314;2024-03-23T02:30:31;98259.69;;;2.62;79.01
44138;BME280;29800;55.942;37.314;2024-03-23T02:32:57;98256.75;;;2.64;79.01
44138;BME280;29800;55.942;37.314;2024-03-23T02:35:23;98244.78;;;2.60;79.89
44138;BME280;29800;55.942;37.314;2024-03-23T02:37:50;98240.41;;;2.58;80.05
44138;BME280;29800;55.942;37.314;2024-03-23T02:40:17;98245.00;;;2.58;79.96
44138;BME280;29800;55.942;37.314;2024-03-23T02:42:43;98239.13;;;2.61;80.42
44138;BME280;29800;55.942;37.314;2024-03-23T02:45:10;98233.72;;;2.61;80.52
44138;BME280;29800;55.942;37.314;2024-03-23T02:47:36;98236.22;;;2.63;80.40
44138;BME280;29800;55.942;37.314;2024-03-23T02:50:02;98227.63;;;2.66;80.12
44138;BME280;29800;55.942;37.314;2024-03-23T02:52:30;98226.31;;;2.68;80.77
44138;BME280;29800;55.942;37.314;2024-03-23T02:54:57;98226.91;;;2.70;80.28
44138;BME280;29800;55.942;37.314;2024-03-23T02:57:23;98212.81;;;2.68;80.24
44138;BME280;29800;55.942;37.314;2024-03-23T02:59:49;98207.41;;;2.68;81.05
44138;BME280;29800;55.942;37.314;2024-03-23T03:02:16;98215.75;;;2.67;80.97
44138;BME280;29800;55.942;37.314;2024-03-23T03:04:42;98210.34;;;2.67;80.85
44138;BME280;29800;55.942;37.314;2024-03-23T03:07:09;98214.13;;;2.66;81.17
44138;BME280;29800;55.942;37.314;2024-03-23T03:09:35;98202.59;;;2.70;81.07
44138;BME280;29800;55.942;37.314;2024-03-23T03:12:01;98202.59;;;2.70;81.53
44138;BME280;29800;55.942;37.314;2024-03-23T03:14:29;98200.59;;;2.78;81.31
44138;BME280;29800;55.942;37.314;2024-03-23T03:16:55;98196.25;;;2.76;81.71
44138;BME280;29800;55.942;37.314;2024-03-23T03:19:21;98191.66;;;2.77;81.74
44138;BME280;29800;55.942;37.314;2024-03-23T03:21:48;98178.75;;;2.79;81.58
44138;BME280;29800;55.942;37.314;2024-03-23T03:24:16;98193.88;;;2.80;81.98
44138;BME280;29800;55.942;37.314;2024-03-23T03:26:43;98188.47;;;2.80;81.93
44138;BME280;29800;55.942;37.314;2024-03-23T03:29:09;98167.22;;;2.84;82.07
44138;BME280;29800;55.942;37.314;2024-03-23T03:31:36;98163.09;;;2.81;82.07
44138;BME280;29800;55.942;37.314;2024-03-23T03:34:02;98161.81;;;2.84;82.39
44138;BME280;29800;55.942;37.314;2024-03-23T03:36:28;98158.63;;;2.87;82.00
44138;BME280;29800;55.942;37.314;2024-03-23T03:38:54;98150.50;;;2.87;82.31
44138;BME280;29800;55.942;37.314;2024-03-23T03:41:20;98141.81;;;2.85;82.40
44138;BME280;29800;55.942;37.314;2024-03-23T03:43:46;98141.81;;;2.85;82.00
44138;BME280;29800;55.942;37.314;2024-03-23T03:46:13;98137.00;;;2.87;82.33
44138;BME280;29800;55.942;37.314;2024-03-23T03:48:39;98142.41;;;2.87;82.68
44138;BME280;29800;55.942;37.314;2024-03-23T03:51:05;98139.69;;;2.87;82.42
44138;BME280;29800;55.942;37.314;2024-03-23T03:53:31;98131.59;;;2.87;82.53
44138;BME280;29800;55.942;37.314;2024-03-23T03:56:03;98126.41;;;2.85;82.82
44138;BME280;29800;55.942;37.314;2024-03-23T03:58:29;98126.41;;;2.85;82.67
44138;BME280;29800;55.942;37.314;2024-03-23T04:00:55;98128.31;;;2.85;83.33
44138;BME280;29800;55.942;37.314;2024-03-23T04:03:22;98117.25;;;2.86;82.88
44138;BME280;29800;55.942;37.314;2024-03-23T04:05:54;98122.19;;;2.89;83.10
44138;BME280;29800;55.942;37.314;2024-03-23T04:08:21;98117.03;;;2.88;83.18
44138;BME280;29800;55.942;37.314;2024-03-23T04:10:47;98118.22;;;2.92;83.22
44138;BME280;29800;55.942;37.314;2024-03-23T04:13:14;98107.41;;;2.92;83.38
44138;BME280;29800;55.942;37.314;2024-03-23T04:15:40;98111.38;;;2.89;82.74
44138;BME280;29800;55.942;37.314;2024-03-23T04:18:06;98098.69;;;2.90;83.35
44138;BME280;29800;55.942;37.314;2024-03-23T04:20:33;98096.59;;;2.92;83.55
44138;BME280;29800;55.942;37.314;2024-03-23T04:22:59;98095.50;;;2.93;83.20
44138;BME280;29800;55.942;37.314;2024-03-23T04:25:26;98091.50;;;2.96;83.25
44138;BME280;29800;55.942;37.314;2024-03-23T04:27:52;98082.94;;;2.99;83.14
44138;BME280;29800;55.942;37.314;2024-03-23T04:30:18;98076.69;;;2.98;83.45
44138;BME280;29800;55.942;37.314;2024-03-23T04:32:45;98070.78;;;3.01;83.50
44138;BME280;29800;55.942;37.314;2024-03-23T04:35:11;98074.66;;;3.05;83.62
44138;BME280;29800;55.942;37.314;2024-03-23T04:37:39;98068.78;;;3.08;83.06
44138;BME280;29800;55.942;37.314;2024-03-23T04:40:09;98060.91;;;3.07;83.54
44138;BME280;29800;55.942;37.314;2024-03-23T04:42:37;98069.75;;;3.02;83.79
44138;BME280;29800;55.942;37.314;2024-03-23T04:45:04;98061.63;;;3.02;83.70
44138;BME280;29800;55.942;37.314;2024-03-23T04:47:32;98060.69;;;3.08;83.92
44138;BME280;29800;55.942;37.314;2024-03-23T04:49:58;98050.19;;;3.12;83.29
44138;BME280;29800;55.942;37.314;2024-03-23T04:52:24;98060.75;;;3.13;83.86
44138;BME280;29800;55.942;37.314;2024-03-23T04:54:51;98052.56;;;3.08;83.47
44138;BME280;29800;55.942;37.314;2024-03-23T04:57:17;98042.31;;;3.10;83.74
44138;BME280;29800;55.942;37.314;2024-03-23T04:59:47;98051.47;;;3.09;84.11
44138;BME280;29800;55.942;37.314;2024-03-23T05:02:14;98060.44;;;3.10;83.84
44138;BME280;29800;55.942;37.314;2024-03-23T05:04:42;98052.66;;;3.13;84.41
44138;BME280;29800;55.942;37.314;2024-03-23T05:07:09;98043.94;;;3.11;84.42
44138;BME280;29800;55.942;37.314;2024-03-23T05:09:35;98048.78;;;3.09;84.57
44138;BME280;29800;55.942;37.314;2024-03-23T05:12:01;98048.53;;;3.11;84.82
44138;BME280;29800;55.942;37.314;2024-03-23T05:14:28;98040.66;;;3.09;84.74
44138;BME280;29800;55.942;37.314;2024-03-23T05:16:55;98039.63;;;3.10;84.95
44138;BME280;29800;55.942;37.314;2024-03-23T05:19:21;98036.91;;;3.10;85.20
44138;BME280;29800;55.942;37.314;2024-03-23T05:21:48;98034.28;;;3.16;84.69
44138;BME280;29800;55.942;37.314;2024-03-23T05:24:14;98024.53;;;3.15;85.10
44138;BME280;29800;55.942;37.314;2024-03-23T05:26:40;98026.75;;;3.18;84.68
44138;BME280;29800;55.942;37.314;2024-03-23T05:29:06;98018.41;;;3.19;84.75
44138;BME280;29800;55.942;37.314;2024-03-23T05:31:36;98006.28;;;3.22;85.25
44138;BME280;29800;55.942;37.314;2024-03-23T05:34:03;98015.13;;;3.17;84.91
44138;BME280;29800;55.942;37.314;2024-03-23T05:36:29;98007.00;;;3.17;85.14
44138;BME280;29800;55.942;37.314;2024-03-23T05:38:56;97998.41;;;3.20;85.33
44138;BME280;29800;55.942;37.314;2024-03-23T05:41:22;97991.75;;;3.28;85.00
44138;BME280;29800;55.942;37.314;2024-03-23T05:43:50;97993.66;;;3.27;84.88
44138;BME280;29800;55.942;37.314;2024-03-23T05:46:16;98001.03;;;3.32;85.30
44138;BME280;29800;55.942;37.314;2024-03-23T05:48:43;97992.38;;;3.30;85.20
44138;BME280;29800;55.942;37.314;2024-03-23T05:51:10;98005.28;;;3.28;85.27
44138;BME280;29800;55.942;37.314;2024-03-23T05:53:38;97994.75;;;3.26;85.31
44138;BME280;29800;55.942;37.314;2024-03-23T05:56:04;97986.88;;;3.25;85.44
44138;BME280;29800;55.942;37.314;2024-03-23T05:58:31;97994.47;;;3.28;85.81
44138;BME280;29800;55.942;37.314;2024-03-23T06:01:00;97984.50;;;3.28;85.91
44138;BME280;29800;55.942;37.314;2024-03-23T06:03:28;97981.53;;;3.30;85.60
44138;BME280;29800;55.942;37.314;2024-03-23T06:05:55;97984.81;;;3.32;85.65
44138;BME280;29800;55.942;37.314;2024-03-23T06:08:23;97973.75;;;3.34;85.19
44138;BME280;29800;55.942;37.314;2024-03-23T06:10:51;97979.72;;;3.36;85.54
44138;BME280;29800;55.942;37.314;2024-03-23T06:13:18;97977.75;;;3.31;85.50
44138;BME280;29800;55.942;37.314;2024-03-23T06:15:44;97977.50;;;3.33;85.90
44138;BME280;29800;55.942;37.314;2024-03-23T06:18:13;97968.50;;;3.27;85.74
44138;BME280;29800;55.942;37.314;2024-03-23T06:20:39;97970.72;;;3.30;85.96
44138;BME280;29800;55.942;37.314;2024-03-23T06:23:06;97964.16;;;3.26;85.76
44138;BME280;29800;55.942;37.314;2024-03-23T06:25:32;97958.25;;;3.29;85.68
44138;BME280;29800;55.942;37.314;2024-03-23T06:27:58;97955.81;;;3.27;86.33
44138;BME280;29800;55.942;37.314;2024-03-23T06:30:24;97958.25;;;3.29;85.91
44138;BME280;29800;55.942;37.314;2024-03-23T06:32:53;97951.88;;;3.35;86.29
44138;BME280;29800;55.942;37.314;2024-03-23T06:35:19;97955.63;;;3.34;85.74
44138;BME280;29800;55.942;37.314;2024-03-23T06:37:45;97953.53;;;3.36;85.98
44138;BME280;29800;55.942;37.314;2024-03-23T06:40:12;97945.41;;;3.36;86.28
44138;BME280;29800;55.942;37.314;2024-03-23T06:42:38;97946.47;;;3.35;86.12
44138;BME280;29800;55.942;37.314;2024-03-23T06:45:05;97945.66;;;3.35;85.94
44138;BME280;29800;55.942;37.314;2024-03-23T06:47:32;97935.66;;;3.35;86.31
44138;BME280;29800;55.942;37.314;2024-03-23T06:50:02;97940.00;;;3.36;86.23
44138;BME280;29800;55.942;37.314;2024-03-23T06:52:32;97938.44;;;3.40;86.00
44138;BME280;29800;55.942;37.314;2024-03-23T06:54:59;97942.78;;;3.41;86.61
44138;BME280;29800;55.942;37.314;2024-03-23T06:57:25;97936.53;;;3.41;85.95
44138;BME280;29800;55.942;37.314;2024-03-23T06:59:51;97934.66;;;3.41;86.54
44138;BME280;29800;55.942;37.314;2024-03-23T07:02:17;97934.19;;;3.44;86.17
44138;BME280;29800;55.942;37.314;2024-03-23T07:04:43;97932.03;;;3.46;86.47
44138;BME280;29800;55.942;37.314;2024-03-23T07:07:10;97927.25;;;3.54;86.27
44138;BME280;29800;55.942;37.314;2024-03-23T07:09:36;97928.84;;;3.49;86.11
44138;BME280;29800;55.942;37.314;2024-03-23T07:12:04;97934.88;;;3.57;85.77
44138;BME280;29800;55.942;37.314;2024-03-23T07:14:31;97925.13;;;3.56;85.88
44138;BME280;29800;55.942;37.314;2024-03-23T07:16:58;97915.44;;;3.60;85.86
44138;BME280;29800;55.942;37.314;2024-03-23T07:19:24;97925.72;;;3.58;85.90
44138;BME280;29800;55.942;37.314;2024-03-23T07:21:51;97911.94;;;3.59;85.83
44138;BME280;29800;55.942;37.314;2024-03-23T07:24:18;97922.50;;;3.61;85.76
44138;BME280;29800;55.942;37.314;2024-03-23T07:26:44;97919.28;;;3.64;86.36
44138;BME280;29800;55.942;37.314;2024-03-23T07:29:11;97916.56;;;3.64;85.88
44138;BME280;29800;55.942;37.314;2024-03-23T07:31:37;97911.50;;;3.67;86.11
44138;BME280;29800;55.942;37.314;2024-03-23T07:34:05;97913.19;;;3.74;85.58
44138;BME280;29800;55.942;37.314;2024-03-23T07:36:32;97911.50;;;3.67;85.40
44138;BME280;29800;55.942;37.314;2024-03-23T07:38:58;97909.34;;;3.70;85.53
44138;BME280;29800;55.942;37.314;2024-03-23T07:41:24;97904.25;;;3.73;85.96
44138;BME280;29800;55.942;37.314;2024-03-23T07:43:51;97906.22;;;3.78;85.32
44138;BME280;29800;55.942;37.314;2024-03-23T07:46:18;97908.94;;;3.78;85.64
44138;BME280;29800;55.942;37.314;2024-03-23T07:48:45;97903.75;;;3.76;85.24
44138;BME280;29800;55.942;37.314;2024-03-23T07:51:20;97897.03;;;3.79;85.32
44138;BME280;29800;55.942;37.314;2024-03-23T07:53:47;97897.03;;;3.79;85.58
44138;BME280;29800;55.942;37.314;2024-03-23T07:56:16;97896.69;;;3.75;85.49
44138;BME280;29800;55.942;37.314;2024-03-23T07:58:45;97895.69;;;3.81;85.44
44138;BME280;29800;55.942;37.314;2024-03-23T08:01:12;97896.00;;;3.85;85.89
44138;BME280;29800;55.942;37.314;2024-03-23T08:03:42;97897.41;;;3.88;85.88
44138;BME280;29800;55.942;37.314;2024-03-23T08:06:18;97887.47;;;3.93;85.55
44138;BME280;29800;55.942;37.314;2024-03-23T08:08:57;97875.81;;;3.93;85.64
44138;BME280;29800;55.942;37.314;2024-03-23T08:11:28;97880.69;;;3.91;85.45
44138;BME280;29800;55.942;37.314;2024-03-23T08:13:56;97883.38;;;3.91;85.35
44138;BME280;29800;55.942;37.314;2024-03-23T08:16:23;97891.56;;;3.96;85.58
44138;BME280;29800;55.942;37.314;2024-03-23T08:18:52;97875.88;;;3.98;85.59
44138;BME280;29800;55.942;37.314;2024-03-23T08:21:18;97871.03;;;4.00;85.63
44138;BME280;29800;55.942;37.314;2024-03-23T08:23:45;97877.56;;;4.04;85.25
44138;BME280;29800;55.942;37.314;2024-03-23T08:26:13;97874.56;;;4.00;85.79
44138;BME280;29800;55.942;37.314;2024-03-23T08:28:39;97877.28;;;4.00;85.35
44138;BME280;29800;55.942;37.314;2024-03-23T08:31:07;97880.28;;;4.04;85.86
44138;BME280;29800;55.942;37.314;2024-03-23T08:33:34;97880.03;;;4.05;86.11
44138;BME280;29800;55.942;37.314;2024-03-23T08:36:02;97869.19;;;4.05;85.76
44138;BME280;29800;55.942;37.314;2024-03-23T08:38:28;97856.47;;;4.06;85.69
44138;BME280;29800;55.942;37.314;2024-03-23T08:41:05;97874.94;;;4.09;85.92
44138;BME280;29800;55.942;37.314;2024-03-23T08:43:35;97859.19;;;4.06;85.71
44138;BME280;29800;55.942;37.314;2024-03-23T08:46:05;97866.25;;;4.07;86.00
44138;BME280;29800;55.942;37.314;2024-03-23T08:48:34;97856.72;;;4.04;86.18
44138;BME280;29800;55.942;37.314;2024-03-23T08:51:08;97855.47;;;4.12;86.05
44138;BME280;29800;55.942;37.314;2024-03-23T08:53:35;97857.63;;;4.10;86.15
44138;BME280;29800;55.942;37.314;2024-03-23T08:56:02;97849.81;;;4.14;85.91
44138;BME280;29800;55.942;37.314;2024-03-23T08:58:31;97851.75;;;4.18;85.99
44138;BME280;29800;55.942;37.314;2024-03-23T09:01:18;97849.09;;;4.23;85.76
44138;BME280;29800;55.942;37.314;2024-03-23T09:03:44;97841.47;;;4.20;85.91
44138;BME280;29800;55.942;37.314;2024-03-23T09:06:14;97842.03;;;4.22;85.83
44138;BME280;29800;55.942;37.314;2024-03-23T09:08:40;97850.97;;;4.23;85.92
44138;BME280;29800;55.942;37.314;2024-03-23T09:11:08;97847.75;;;4.26;85.45
44138;BME280;29800;55.942;37.314;2024-03-23T09:13:35;97849.09;;;4.23;85.95
44138;BME280;29800;55.942;37.314;2024-03-23T09:16:03;97840.41;;;4.21;85.86
44138;BME280;29800;55.942;37.314;2024-03-23T09:18:33;97842.84;;;4.23;85.83
44138;BME280;29800;55.942;37.314;2024-03-23T09:20:59;97836.63;;;4.22;85.75
44138;BME280;29800;55.942;37.314;2024-03-23T09:23:25;97824.47;;;4.25;86.03
44138;BME280;29800;55.942;37.314;2024-03-23T09:25:52;97834.00;;;4.33;85.58
44138;BME280;29800;55.942;37.314;2024-03-23T09:28:18;97825.06;;;4.32;85.66
44138;BME280;29800;55.942;37.314;2024-03-23T09:30:44;97823.13;;;4.28;85.81
44138;BME280;29800;55.942;37.314;2024-03-23T09:33:12;97821.50;;;4.27;86.27
44138;BME280;29800;55.942;37.314;2024-03-23T09:35:39;97828.03;;;4.31;86.17
44138;BME280;29800;55.942;37.314;2024-03-23T09:38:06;97819.66;;;4.32;85.64
44138;BME280;29800;55.942;37.314;2024-03-23T09:40:43;97818.84;;;4.32;85.83
44138;BME280;29800;55.942;37.314;2024-03-23T09:43:10;97819.34;;;4.29;85.75
44138;BME280;29800;55.942;37.314;2024-03-23T09:45:40;97816.13;;;4.32;86.33
44138;BME280;29800;55.942;37.314;2024-03-23T09:48:09;97813.97;;;4.34;86.24
44138;BME280;29800;55.942;37.314;2024-03-23T09:50:38;97813.47;;;4.37;86.13
44138;BME280;29800;55.942;37.314;2024-03-23T09:53:07;97812.41;;;4.38;86.03
44138;BME280;29800;55.942;37.314;2024-03-23T09:55:33;97814.03;;;4.39;86.05
44138;BME280;29800;55.942;37.314;2024-03-23T09:58:02;97803.69;;;4.36;86.14
44138;BME280;29800;55.942;37.314;2024-03-23T10:00:28;97805.34;;;4.37;85.89
44138;BME280;29800;55.942;37.314;2024-03-23T10:02:55;97802.63;;;4.37;85.92
44138;BME280;29800;55.942;37.314;2024-03-23T10:05:23;97815.66;;;4.40;86.13
44138;BME280;29800;55.942;37.314;2024-03-23T10:07:50;97806.19;;;4.42;85.89
44138;BME280;29800;55.942;37.314;2024-03-23T10:10:17;97815.16;;;4.43;85.69
44138;BME280;29800;55.942;37.314;2024-03-23T10:12:46;97812.50;;;4.48;85.73
44138;BME280;29800;55.942;37.314;2024-03-23T10:15:24;97806.56;;;4.51;85.96
44138;BME280;29800;55.942;37.314;2024-03-23T10:17:51;97813.91;;;4.56;85.85
44138;BME280;29800;55.942;37.314;2024-03-23T10:20:22;97806.84;;;4.55;85.92
44138;BME280;29800;55.942;37.314;2024-03-23T10:22:50;97803.28;;;4.49;86.10
44138;BME280;29800;55.942;37.314;2024-03-23T10:25:18;97806.56;;;4.51;85.72
44138;BME280;29800;55.942;37.314;2024-03-23T10:28:00;97798.22;;;4.58;85.98
44138;BME280;29800;55.942;37.314;2024-03-23T10:30:27;97801.13;;;4.51;85.75
44138;BME280;29800;55.942;37.314;2024-03-23T10:33:08;97791.69;;;4.59;86.00
44138;BME280;29800;55.942;37.314;2024-03-23T10:35:34;97794.94;;;4.56;85.84
44138;BME280;29800;55.942;37.314;2024-03-23T10:38:04;97793.84;;;4.57;85.90
44138;BME280;29800;55.942;37.314;2024-03-23T10:40:30;97804.69;;;4.57;85.79
44138;BME280;29800;55.942;37.314;2024-03-23T10:42:58;97802.78;;;4.57;86.15
44138;BME280;29800;55.942;37.314;2024-03-23T10:45:25;97808.22;;;4.57;85.96
44138;BME280;29800;55.942;37.314;2024-03-23T10:47:51;97808.22;;;4.57;85.86
44138;BME280;29800;55.942;37.314;2024-03-23T10:50:18;97809.59;;;4.60;85.87
44138;BME280;29800;55.942;37.314;2024-03-23T10:52:46;97809.91;;;4.64;85.89
44138;BME280;29800;55.942;37.314;2024-03-23T10:55:16;97799.91;;;4.64;85.78
44138;BME280;29800;55.942;37.314;2024-03-23T10:57:50;97800.97;;;4.63;85.79
44138;BME280;29800;55.942;37.314;2024-03-23T11:00:17;97799.06;;;4.64;85.91
44138;BME280;29800;55.942;37.314;2024-03-23T11:02:44;97793.94;;;4.67;85.90
44138;BME280;29800;55.942;37.314;2024-03-23T11:05:29;97792.94;;;4.78;85.77
44138;BME280;29800;55.942;37.314;2024-03-23T11:07:56;97793.44;;;4.75;85.72
44138;BME280;29800;55.942;37.314;2024-03-23T11:10:31;97801.59;;;4.75;85.64
44138;BME280;29800;55.942;37.314;2024-03-23T11:13:22;97793.78;;;4.79;85.86
44138;BME280;29800;55.942;37.314;2024-03-23T11:15:48;97792.09;;;4.73;85.90
44138;BME280;29800;55.942;37.314;2024-03-23T11:18:20;97796.16;;;4.75;85.77
44138;BME280;29800;55.942;37.314;2024-03-23T11:20:47;97788.88;;;4.76;85.85
44138;BME280;29800;55.942;37.314;2024-03-23T11:23:29;97784.28;;;4.82;86.25
44138;BME280;29800;55.942;37.314;2024-03-23T11:25:55;97781.53;;;4.76;86.26
44138;BME280;29800;55.942;37.314;2024-03-23T11:28:21;97787.25;;;4.80;85.99
44138;BME280;29800;55.942;37.314;2024-03-23T11:30:47;97783.47;;;4.81;85.86
44138;BME280;29800;55.942;37.314;2024-03-23T11:33:14;97789.44;;;4.83;86.01
44138;BME280;29800;55.942;37.314;2024-03-23T11:35:41;97780.00;;;4.86;85.89
44138;BME280;29800;55.942;37.314;2024-03-23T11:38:16;97777.56;;;4.89;86.18
44138;BME280;29800;55.942;37.314;2024-03-23T11:40:46;97777.59;;;4.94;85.85
44138;BME280;29800;55.942;37.314;2024-03-23T11:43:14;97770.53;;;4.93;85.73
44138;BME280;29800;55.942;37.314;2024-03-23T11:45:44;97770.03;;;4.96;86.01
44138;BME280;29800;55.942;37.314;2024-03-23T11:48:12;97766.25;;;4.97;85.88
44138;BME280;29800;55.942;37.314;2024-03-23T11:50:41;97773.31;;;4.99;86.16
44138;BME280;29800;55.942;37.314;2024-03-23T11:55:59;97758.69;;;5.05;86.13
44138;BME280;29800;55.942;37.314;2024-03-23T11:58:27;97763.56;;;5.03;86.16
44138;BME280;29800;55.942;37.314;2024-03-23T12:01:03;97760.06;;;5.07;86.32
44138;BME280;29800;55.942;37.314;2024-03-23T12:03:30;97758.16;;;5.08;86.40
44138;BME280;29800;55.942;37.314;2024-03-23T12:05:59;97757.09;;;5.09;86.50
44138;BME280;29800;55.942;37.314;2024-03-23T12:08:32;97760.34;;;5.11;86.74
44138;BME280;29800;55.942;37.314;2024-03-23T12:11:08;97760.09;;;5.12;86.79
44138;BME280;29800;55.942;37.314;2024-03-23T12:13:36;97758.69;;;5.10;86.49
44138;BME280;29800;55.942;37.314;2024-03-23T12:16:16;97759.81;;;5.14;86.77
44138;BME280;29800;55.942;37.314;2024-03-23T12:18:44;97751.66;;;5.09;86.40
44138;BME280;29800;55.942;37.314;2024-03-23T12:21:10;97755.97;;;5.05;86.70
44138;BME280;29800;55.942;37.314;2024-03-23T12:23:40;97758.69;;;5.05;86.66
44138;BME280;29800;55.942;37.314;2024-03-23T12:26:07;97760.31;;;5.06;86.64
44138;BME280;29800;55.942;37.314;2024-03-23T12:28:35;97748.34;;;5.02;86.57
44138;BME280;29800;55.942;37.314;2024-03-23T12:31:01;97757.59;;;5.01;86.81
44138;BME280;29800;55.942;37.314;2024-03-23T12:33:27;97761.38;;;5.00;86.92
44138;BME280;29800;55.942;37.314;2024-03-23T12:35:54;97755.41;;;4.97;87.14
44138;BME280;29800;55.942;37.314;2024-03-23T12:38:20;97753.22;;;5.00;87.10
44138;BME280;29800;55.942;37.314;2024-03-23T12:40:50;97750.53;;;5.00;87.32
44138;BME280;29800;55.942;37.314;2024-03-23T12:43:17;97753.75;;;4.96;87.06
44138;BME280;29800;55.942;37.314;2024-03-23T12:45:47;97749.97;;;4.97;87.61
44138;BME280;29800;55.942;37.314;2024-03-23T12:48:14;97753.50;;;4.98;87.40
44138;BME280;29800;55.942;37.314;2024-03-23T12:50:40;97742.34;;;4.94;87.55
44138;BME280;29800;55.942;37.314;2024-03-23T12:53:07;97748.84;;;4.93;87.65
44138;BME280;29800;55.942;37.314;2024-03-23T12:55:36;97750.50;;;4.94;87.78
44138;BME280;29800;55.942;37.314;2024-03-23T12:58:02;97751.03;;;4.96;87.70
44138;BME280;29800;55.942;37.314;2024-03-23T13:00:29;97739.34;;;4.91;87.56
44138;BME280;29800;55.942;37.314;2024-03-23T13:02:55;97749.69;;;4.94;87.93
44138;BME280;29800;55.942;37.314;2024-03-23T13:05:22;97738.81;;;4.89;88.05
44138;BME280;29800;55.942;37.314;2024-03-23T13:07:48;97743.97;;;4.90;87.93
44138;BME280;29800;55.942;37.314;2024-03-23T13:10:14;97741.81;;;4.92;87.94
44138;BME280;29800;55.942;37.314;2024-03-23T13:12:43;97746.13;;;4.93;87.93
44138;BME280;29800;55.942;37.314;2024-03-23T13:15:09;97740.19;;;4.96;88.00
44138;BME280;29800;55.942;37.314;2024-03-23T13:17:36;97738.31;;;4.97;88.20
44138;BME280;29800;55.942;37.314;2024-03-23T13:20:02;97737.47;;;4.96;88.13
44138;BME280;29800;55.942;37.314;2024-03-23T13:22:31;97740.72;;;4.93;87.92
44138;BME280;29800;55.942;37.314;2024-03-23T13:24:58;97733.97;;;4.96;88.08
44138;BME280;29800;55.942;37.314;2024-03-23T13:27:26;97728.25;;;4.92;88.12
44138;BME280;29800;55.942;37.314;2024-03-23T13:29:52;97732.03;;;4.91;88.38
44138;BME280;29800;55.942;37.314;2024-03-23T13:32:18;97732.03;;;4.91;88.46
44138;BME280;29800;55.942;37.314;2024-03-23T13:34:44;97727.97;;;4.89;88.53
44138;BME280;29800;55.942;37.314;2024-03-23T13:37:10;97732.56;;;4.88;88.73
44138;BME280;29800;55.942;37.314;2024-03-23T13:39:36;97732.56;;;4.88;88.72
44138;BME280;29800;55.942;37.314;2024-03-23T13:42:03;97736.91;;;4.89;88.76
44138;BME280;29800;55.942;37.314;2024-03-23T13:44:29;97722.84;;;4.92;88.73
44138;BME280;29800;55.942;37.314;2024-03-23T13:46:55;97728.25;;;4.92;88.70
44138;BME280;29800;55.942;37.314;2024-03-23T13:49:29;97722.56;;;4.94;88.77
44138;BME280;29800;55.942;37.314;2024-03-23T13:51:57;97733.69;;;4.92;88.73
44138;BME280;29800;55.942;37.314;2024-03-23T13:54:25;97727.72;;;4.90;88.89
44138;BME280;29800;55.942;37.314;2024-03-23T13:56:52;97726.06;;;4.89;88.71